KGEY/GEY METAR and TAF weather

Enter ICAO airport designator
Station Type Date Time Source
KGEY METAR 2019/10/15 21:53 UTC NOAA

KGEY 152153Z AUTO 16006KT 10SM CLR 12/M03 A3017 RMK AO2 SLP223 T01221028


Station Type Date Time Source
KGEY Decoded METAR 2019/10/15 21:53 UTC NOAA

SOUTH BIG HORN COUNTY AIRPORT , WY, United States (KGEY) 44-31N 108-05W 1191M
Oct 15, 2019 - 05:53 PM EDT / 2019.10.15 2153 UTC
Wind: from the SSE (160 degrees) at 7 MPH (6 KT):0
Visibility: 10 mile(s):0
Sky conditions: clear
Temperature: 54.0 F (12.2 C)
Dew Point: 27.0 F (-2.8 C)
Relative Humidity: 35%
Pressure (altimeter): 30.17 in. Hg (1021 hPa)
ob: KGEY 152153Z AUTO 16006KT 10SM CLR 12/M03 A3017 RMK AO2 SLP223 T01221028
cycle: 22

Station Type Date Time Source
KGEY TAF UTC NOAA

Error!

Example: see airport list